Time;durP1;ratioP1;P1;durP2;ratioP2;P2;SDS_P1;SDS_P2;PMS_P1;PMS_P2;Temp;Humidity;BMP_temperature;BMP_pressure;BME280_temperature;BME280_humidity;BME280_pressure;Samples;Min_cycle;Max_cycle;Signal;HPM_P1;HPM_P2
2020/12/04 00:00:12;;;;;;;50.65;19.20;;;;;;;0.04;82.43;100278.72;1705216;82;21299;-73
2020/12/04 00:02:40;;;;;;;39.48;15.95;;;;;;;-0.06;82.74;100270.22;1699430;82;21601;-72
2020/12/04 00:05:07;;;;;;;42.43;17.27;;;;;;;0.06;82.63;100269.12;1703800;82;21596;-72
2020/12/04 00:07:36;;;;;;;59.63;21.55;;;;;;;0.09;82.46;100270.39;1699003;82;21296;-74
2020/12/04 00:10:03;;;;;;;46.02;19.42;;;;;;;0.00;82.77;100265.37;1695094;85;21187;-73
2020/12/04 00:12:31;;;;;;;42.48;17.67;;;;;;;0.02;82.81;100266.63;1700769;84;21670;-73
2020/12/04 00:15:00;;;;;;;38.78;16.32;;;;;;;0.06;82.54;100257.88;1735763;82;21174;-74
2020/12/04 00:17:27;;;;;;;51.35;18.15;;;;;;;0.05;82.64;100262.23;1706846;82;21716;-74
2020/12/04 00:19:56;;;;;;;46.08;19.30;;;;;;;-0.04;82.95;100253.28;1744689;82;21631;-73
2020/12/04 00:22:24;;;;;;;49.77;20.40;;;;;;;0.03;82.89;100249.70;1731466;82;22439;-73
2020/12/04 00:24:51;;;;;;;46.35;18.70;;;;;;;0.16;82.52;100251.16;1744450;82;21199;-72
2020/12/04 00:27:18;;;;;;;42.88;17.57;;;;;;;0.13;82.63;100250.39;1704435;82;21316;-73
2020/12/04 00:29:45;;;;;;;41.35;17.02;;;;;;;0.07;82.83;100257.84;1702226;82;21308;-73
2020/12/04 00:32:13;;;;;;;45.40;18.10;;;;;;;0.12;82.68;100257.31;1702371;82;21130;-73
2020/12/04 00:34:44;;;;;;;42.67;18.23;;;;;;;0.22;82.38;100254.53;1712564;82;21154;-72
2020/12/04 00:37:12;;;;;;;41.05;16.40;;;;;;;0.13;82.60;100253.83;1731573;82;21203;-73
2020/12/04 00:39:40;;;;;;;39.53;16.52;;;;;;;0.09;82.80;100249.59;1731828;82;21286;-73
2020/12/04 00:42:07;;;;;;;50.73;18.80;;;;;;;0.22;82.47;100255.83;1744793;82;21203;-72
2020/12/04 00:44:34;;;;;;;48.68;21.00;;;;;;;0.10;82.56;100256.51;1744623;82;21215;-72
2020/12/04 00:47:02;;;;;;;41.68;17.00;;;;;;;-0.01;83.00;100245.45;1726346;82;21198;-72
2020/12/04 00:49:31;;;;;;;45.55;17.35;;;;;;;0.11;82.90;100244.34;1723804;82;21124;-73
2020/12/04 00:51:59;;;;;;;49.00;16.62;;;;;;;0.16;82.53;100242.05;1745935;81;21606;-72
2020/12/04 00:54:26;;;;;;;44.55;19.27;;;;;;;0.06;82.87;100249.63;1753767;82;21158;-72
2020/12/04 00:56:55;;;;;;;40.33;18.37;;;;;;;0.08;82.97;100239.22;1750972;82;21625;-72
2020/12/04 00:59:24;;;;;;;43.68;18.15;;;;;;;0.19;82.74;100236.39;1752926;82;21619;-73
2020/12/04 01:01:51;;;;;;;38.75;15.03;;;;;;;0.15;82.75;100244.70;1751625;82;21575;-73
2020/12/04 01:04:18;;;;;;;42.15;16.87;;;;;;;0.07;82.94;100240.94;1723417;82;21128;-73
2020/12/04 01:06:45;;;;;;;36.85;15.10;;;;;;;0.10;83.01;100235.70;1723392;83;21203;-73
2020/12/04 01:09:15;;;;;;;44.73;17.52;;;;;;;0.16;82.75;100235.55;1746807;82;21182;-74
2020/12/04 01:11:42;;;;;;;40.28;15.43;;;;;;;0.04;83.01;100229.31;1753532;81;21738;-71
2020/12/04 01:14:09;;;;;;;35.33;15.78;;;;;;;0.06;83.16;100231.42;1753024;81;21202;-74
2020/12/04 01:16:37;;;;;;;41.50;16.82;;;;;;;0.21;82.75;100235.93;1753666;82;21222;-74
2020/12/04 01:19:04;;;;;;;41.85;16.82;;;;;;;0.18;82.80;100242.47;1750798;82;21179;-73
2020/12/04 01:21:31;;;;;;;42.67;18.42;;;;;;;0.11;83.09;100239.98;1753562;82;21199;-73
2020/12/04 01:23:58;;;;;;;42.35;16.55;;;;;;;0.25;82.84;100238.88;1753592;81;21171;-72
2020/12/04 01:26:25;;;;;;;38.02;15.18;;;;;;;0.30;82.65;100229.23;1726175;81;21211;-72
2020/12/04 01:28:52;;;;;;;38.48;15.13;;;;;;;0.24;82.75;100230.66;1723282;82;21131;-72
2020/12/04 01:31:20;;;;;;;32.28;14.87;;;;;;;0.19;82.88;100238.99;1738409;82;21305;-72
2020/12/04 01:33:47;;;;;;;36.55;16.48;;;;;;;0.28;82.61;100227.09;1753772;82;21147;-72
2020/12/04 01:36:15;;;;;;;37.85;16.65;;;;;;;0.29;82.48;100234.02;1751105;81;21284;-72
2020/12/04 01:38:42;;;;;;;35.52;16.37;;;;;;;0.21;82.73;100240.67;1750915;82;21206;-72
2020/12/04 01:41:09;;;;;;;35.48;16.35;;;;;;;0.16;82.98;100237.31;1723366;82;21730;-72
2020/12/04 01:43:39;;;;;;;43.40;16.45;;;;;;;0.25;82.76;100229.31;1745852;81;21167;-73
2020/12/04 01:46:06;;;;;;;39.60;15.98;;;;;;;0.24;82.79;100226.30;1753952;82;21313;-73
2020/12/04 01:48:33;;;;;;;29.85;12.40;;;;;;;0.15;82.98;100222.16;1732467;82;21651;-73
2020/12/04 01:51:00;;;;;;;36.23;15.93;;;;;;;0.17;83.06;100229.92;1723163;82;21127;-73
2020/12/04 01:53:28;;;;;;;34.50;13.95;;;;;;;0.25;82.76;100228.02;1734621;82;21179;-72
2020/12/04 01:55:55;;;;;;;46.13;16.57;;;;;;;0.22;82.88;100229.81;1753815;82;21615;-73
2020/12/04 01:58:22;;;;;;;33.15;14.15;;;;;;;0.14;83.14;100232.56;1751011;82;21191;-72
2020/12/04 02:00:49;;;;;;;37.83;15.98;;;;;;;0.14;83.16;100233.45;1710086;83;21316;-73
2020/12/04 02:03:17;;;;;;;36.03;14.73;;;;;;;0.21;82.91;100231.57;1723385;82;21207;-73
2020/12/04 02:05:58;;;;;;;44.55;15.98;;;;;;;0.18;83.00;100234.67;1747288;82;21190;-75
2020/12/04 02:08:47;;;;;;;32.98;11.95;;;;;;;0.08;83.33;100232.72;1729683;81;21758;-73
2020/12/04 02:11:19;;;;;;;33.08;14.83;;;;;;;0.07;83.44;100230.54;1729717;82;21190;-73
2020/12/04 02:13:48;;;;;;;33.55;14.45;;;;;;;0.10;83.32;100238.30;1723505;83;21116;-73
2020/12/04 02:16:19;;;;;;;37.65;14.45;;;;;;;0.08;83.44;100230.95;1723289;82;21187;-73
2020/12/04 02:18:50;;;;;;;34.63;15.35;;;;;;;0.03;83.69;100231.49;1723683;82;21155;-71
2020/12/04 02:21:17;;;;;;;33.63;14.35;;;;;;;0.16;83.42;100232.95;1730674;82;21309;-72
2020/12/04 02:23:51;;;;;;;36.85;14.73;;;;;;;0.18;83.26;100223.84;1723677;83;21207;-72
2020/12/04 02:26:21;;;;;;;34.38;14.60;;;;;;;0.09;83.51;100227.91;1729733;82;21651;-72
2020/12/04 02:28:49;;;;;;;30.23;13.58;;;;;;;0.06;83.59;100221.02;1736944;82;21147;-73
2020/12/04 02:31:16;;;;;;;37.03;15.00;;;;;;;0.12;83.40;100216.16;1723549;83;21556;-72
2020/12/04 02:33:44;;;;;;;32.20;13.55;;;;;;;0.07;83.63;100222.73;1749321;82;21310;-72
2020/12/04 02:36:11;;;;;;;35.95;16.52;;;;;;;0.07;83.79;100222.73;1732959;82;21190;-73
2020/12/04 02:38:39;;;;;;;25.48;11.53;;;;;;;0.19;83.61;100227.28;1732580;82;21183;-72
2020/12/04 02:41:07;;;;;;;26.77;11.38;;;;;;;0.27;83.32;100232.75;1725128;82;22346;-72
2020/12/04 02:43:35;;;;;;;39.13;16.65;;;;;;;0.23;83.45;100230.23;1734871;82;21369;-73
2020/12/04 02:46:02;;;;;;;32.90;14.10;;;;;;;0.20;83.65;100234.20;1723172;82;21209;-73
2020/12/04 02:48:29;;;;;;;34.90;14.78;;;;;;;0.36;83.30;100221.31;1723381;82;21242;-73
2020/12/04 02:50:56;;;;;;;36.00;15.15;;;;;;;0.41;82.99;100220.77;1741603;82;21143;-73
2020/12/04 02:53:23;;;;;;;34.25;15.63;;;;;;;0.31;83.22;100216.64;1736233;82;21352;-73
2020/12/04 02:55:51;;;;;;;27.35;12.85;;;;;;;0.27;83.35;100198.94;1742967;82;21187;-73
2020/12/04 02:58:18;;;;;;;45.35;16.70;;;;;;;0.36;83.09;100208.30;1753825;82;21337;-70
2020/12/04 03:00:46;;;;;;;32.58;14.05;;;;;;;0.34;83.11;100210.06;1749490;82;21155;-71
2020/12/04 03:03:13;;;;;;;34.70;15.38;;;;;;;0.28;83.35;100202.38;1730903;82;21602;-71
2020/12/04 03:05:40;;;;;;;30.17;11.85;;;;;;;0.27;83.49;100206.73;1753624;82;21194;-71
2020/12/04 03:08:08;;;;;;;38.73;15.23;;;;;;;0.41;83.19;100210.78;1725807;81;21353;-71
2020/12/04 03:10:36;;;;;;;37.33;14.90;;;;;;;0.32;83.35;100204.05;1723542;82;21191;-71
2020/12/04 03:13:03;;;;;;;29.67;12.88;;;;;;;0.22;83.63;100197.30;1724971;82;21599;-71
2020/12/04 03:15:31;;;;;;;35.38;15.83;;;;;;;0.34;83.49;100207.45;1723425;83;21211;-72
2020/12/04 03:18:00;;;;;;;42.85;17.10;;;;;;;0.41;83.24;100209.05;1723777;82;21592;-72
2020/12/04 03:20:27;;;;;;;33.50;14.33;;;;;;;0.35;83.39;100209.64;1723141;82;21187;-72
2020/12/04 03:22:54;;;;;;;29.70;14.33;;;;;;;0.35;83.55;100211.78;1704076;84;21124;-72
2020/12/04 03:25:22;;;;;;;42.62;16.02;;;;;;;0.51;83.11;100210.16;1677199;83;21792;-72
2020/12/04 03:27:49;;;;;;;30.90;12.88;;;;;;;0.41;83.13;100198.65;1707961;82;21211;-72
2020/12/04 03:30:16;;;;;;;37.28;15.58;;;;;;;0.33;83.45;100210.95;1723555;82;21175;-73
2020/12/04 03:32:44;;;;;;;25.90;12.33;;;;;;;0.42;83.37;100221.61;1751506;82;21155;-72
2020/12/04 03:35:12;;;;;;;34.03;15.05;;;;;;;0.49;83.10;100211.03;1740678;82;21707;-72
2020/12/04 03:37:39;;;;;;;32.25;14.07;;;;;;;0.41;83.35;100203.85;1723393;82;21214;-72
2020/12/04 03:40:06;;;;;;;35.60;15.58;;;;;;;0.39;83.60;100206.92;1726797;82;21199;-72
2020/12/04 03:42:33;;;;;;;34.08;15.08;;;;;;;0.52;83.25;100202.30;1729450;81;21853;-72
2020/12/04 03:45:02;;;;;;;33.73;13.60;;;;;;;0.55;83.08;100207.89;1728082;82;21187;-72
2020/12/04 03:47:29;;;;;;;35.65;14.55;;;;;;;0.49;83.27;100210.19;1729991;82;21337;-73
2020/12/04 03:49:56;;;;;;;27.62;12.40;;;;;;;0.51;83.32;100196.69;1705927;82;21177;-72
2020/12/04 03:52:23;;;;;;;33.63;15.43;;;;;;;0.65;82.92;100210.70;1715509;82;21642;-72
2020/12/04 03:54:50;;;;;;;37.95;15.20;;;;;;;0.54;83.15;100202.27;1702432;84;21214;-72
2020/12/04 03:57:17;;;;;;;26.00;12.70;;;;;;;0.47;83.50;100206.33;1705690;82;21753;-72
2020/12/04 03:59:44;;;;;;;36.05;16.17;;;;;;;0.61;83.24;100197.34;1716357;82;21166;-72
2020/12/04 04:02:12;;;;;;;33.38;14.50;;;;;;;0.65;83.06;100196.38;1733659;82;21165;-72
2020/12/04 04:04:39;;;;;;;32.20;13.98;;;;;;;0.60;83.24;100199.53;1698366;84;21152;-72
2020/12/04 04:07:06;;;;;;;29.40;11.95;;;;;;;0.52;83.48;100207.97;1699281;84;21583;-73
2020/12/04 04:09:35;;;;;;;39.27;16.73;;;;;;;0.63;83.17;100198.19;1717350;82;21194;-72
2020/12/04 04:12:03;;;;;;;34.23;14.78;;;;;;;0.58;83.29;100207.84;1702446;84;21167;-72
2020/12/04 04:14:31;;;;;;;33.58;14.13;;;;;;;0.52;83.56;100206.20;1727430;82;21199;-72
2020/12/04 04:16:58;;;;;;;37.17;16.97;;;;;;;0.58;83.55;100209.14;1744532;82;21317;-72
2020/12/04 04:19:25;;;;;;;34.65;16.70;;;;;;;0.71;83.12;100220.98;1736597;82;21135;-72
2020/12/04 04:21:53;;;;;;;31.25;12.82;;;;;;;0.69;83.23;100217.58;1728406;82;21148;-72
2020/12/04 04:24:20;;;;;;;32.17;14.98;;;;;;;0.63;83.47;100215.10;1729410;82;21163;-71
2020/12/04 04:26:51;;;;;;;28.25;12.10;;;;;;;0.68;83.35;100218.46;1721849;82;21171;-71
2020/12/04 04:29:18;;;;;;;30.92;14.18;;;;;;;0.71;83.20;100219.69;1744500;82;21147;-72
2020/12/04 04:31:50;;;;;;;35.80;14.87;;;;;;;0.67;83.43;100223.70;1730740;82;21195;-72
2020/12/04 04:34:17;;;;;;;30.32;12.78;;;;;;;0.64;83.50;100207.71;1701068;84;21598;-72
2020/12/04 04:36:44;;;;;;;29.80;14.18;;;;;;;0.83;83.10;100205.98;1685034;82;21325;-72
2020/12/04 04:39:12;;;;;;;33.70;15.38;;;;;;;0.84;82.92;100208.55;1704430;83;21225;-72
2020/12/04 04:41:39;;;;;;;36.00;15.20;;;;;;;0.74;83.22;100205.31;1695006;82;21194;-71
2020/12/04 04:44:11;;;;;;;30.37;14.90;;;;;;;0.73;83.29;100210.10;1705159;82;21594;-72
2020/12/04 04:46:49;;;;;;;31.52;14.85;;;;;;;0.88;82.92;100208.03;1702267;84;21345;-72
2020/12/04 04:49:29;;;;;;;29.82;13.13;;;;;;;0.83;82.97;100208.58;1742988;82;21320;-71
2020/12/04 04:51:57;;;;;;;29.07;13.70;;;;;;;0.71;83.28;100214.47;1750297;82;21179;-71
2020/12/04 04:54:25;;;;;;;28.70;13.60;;;;;;;0.68;83.33;100217.16;1719171;82;21185;-72
2020/12/04 04:56:54;;;;;;;33.60;14.58;;;;;;;0.72;83.24;100221.40;1707531;84;21146;-71
2020/12/04 04:59:21;;;;;;;38.83;15.45;;;;;;;0.65;83.45;100212.88;1710991;82;21560;-71
2020/12/04 05:01:49;;;;;;;31.42;14.85;;;;;;;0.64;83.60;100211.61;1712945;82;21303;-71
2020/12/04 05:04:18;;;;;;;30.27;13.78;;;;;;;0.80;83.24;100214.27;1750299;82;21622;-72
2020/12/04 05:06:45;;;;;;;29.65;13.20;;;;;;;0.75;83.29;100208.76;1712881;82;21169;-72
2020/12/04 05:09:26;;;;;;;33.67;15.25;;;;;;;0.65;83.60;100198.98;1720000;82;21186;-72
2020/12/04 05:11:59;;;;;;;27.32;11.28;;;;;;;0.76;83.41;100211.78;1711042;81;21190;-72
2020/12/04 05:14:27;;;;;;;37.45;15.72;;;;;;;0.87;83.14;100202.41;1689133;85;21746;-71
2020/12/04 05:16:57;;;;;;;32.40;14.80;;;;;;;0.78;83.37;100195.23;1728119;82;21464;-71
2020/12/04 05:19:36;;;;;;;36.95;14.87;;;;;;;0.72;83.60;100209.69;1750460;82;21584;-70
2020/12/04 05:22:16;;;;;;;25.80;12.20;;;;;;;0.89;83.30;100207.14;1746039;82;21178;-71
2020/12/04 05:24:45;;;;;;;35.78;15.83;;;;;;;0.95;82.93;100201.80;1750377;82;21624;-71
2020/12/04 05:27:29;;;;;;;31.75;13.65;;;;;;;0.78;83.31;100219.09;1737435;81;21335;-71
2020/12/04 05:29:57;;;;;;;;;;;;;;;0.79;83.38;100212.57;1710132;82;21320;-71
2020/12/04 05:32:28;;;;;;;28.17;13.98;;;;;;;0.88;83.18;100205.42;1712435;82;20246;-72
2020/12/04 05:35:07;;;;;;;31.82;14.33;;;;;;;0.74;83.55;100217.45;1746638;82;21199;-70
2020/12/04 05:37:34;;;;;;;31.60;15.18;;;;;;;0.64;83.89;100209.02;1744853;82;21572;-71
2020/12/04 05:40:02;;;;;;;26.87;11.33;;;;;;;0.75;83.69;100207.00;1716111;82;21179;-71
2020/12/04 05:42:40;;;;;;;26.80;13.78;;;;;;;0.70;83.82;100201.04;1716626;82;21298;-71
2020/12/04 05:45:06;;;;;;;33.55;15.13;;;;;;;0.61;84.08;100212.97;1709253;82;21602;-71
2020/12/04 05:47:43;;;;;;;27.32;11.97;;;;;;;0.68;83.99;100207.17;1716081;83;21338;-72
2020/12/04 05:50:13;;;;;;;25.88;12.33;;;;;;;0.68;84.05;100209.77;1720741;82;21222;-71
2020/12/04 05:52:40;;;;;;;27.67;13.65;;;;;;;0.61;84.33;100212.97;1720518;83;21174;-71
2020/12/04 05:55:10;;;;;;;28.42;11.80;;;;;;;0.72;84.18;100218.80;1721914;82;21162;-71
2020/12/04 05:57:53;;;;;;;33.73;15.18;;;;;;;0.76;84.01;100228.25;1744806;82;21191;-71
2020/12/04 06:00:21;;;;;;;35.13;16.23;;;;;;;0.62;84.34;100226.40;1719703;83;21576;-72
2020/12/04 06:03:04;;;;;;;31.05;12.18;;;;;;;0.74;84.22;100220.94;1725396;82;21175;-71
2020/12/04 06:05:31;;;;;;;33.28;13.70;;;;;;;0.73;84.21;100227.02;1722307;82;21188;-72
2020/12/04 06:08:04;;;;;;;31.82;13.28;;;;;;;0.68;84.42;100237.11;1730021;82;21147;-71
2020/12/04 06:10:34;;;;;;;36.93;15.20;;;;;;;0.78;84.14;100230.81;1723021;83;21195;-72
2020/12/04 06:13:02;;;;;;;30.08;13.45;;;;;;;0.70;84.19;100230.14;1731691;82;21657;-71
2020/12/04 06:15:33;;;;;;;36.17;12.53;;;;;;;0.73;84.25;100241.34;1729166;82;21198;-71
2020/12/04 06:18:08;;;;;;;37.17;14.65;;;;;;;0.79;84.03;100238.61;1728616;82;21309;-71
2020/12/04 06:20:47;;;;;;;30.35;13.00;;;;;;;0.73;84.16;100256.97;1723233;82;21147;-73
2020/12/04 06:23:16;;;;;;;30.85;12.40;;;;;;;0.73;84.25;100249.16;1722736;82;21163;-71
2020/12/04 06:26:03;;;;;;;36.68;13.32;;;;;;;0.87;83.88;100246.67;1743036;82;21709;-71
2020/12/04 06:28:36;;;;;;;30.82;14.23;;;;;;;0.73;84.06;100241.34;1723314;83;21183;-71
2020/12/04 06:31:14;;;;;;;35.15;13.55;;;;;;;0.72;84.19;100248.73;1723196;82;21163;-72
2020/12/04 06:33:47;;;;;;;35.78;15.03;;;;;;;0.73;84.17;100249.16;1731146;82;21235;-71
2020/12/04 06:36:34;;;;;;;33.40;15.20;;;;;;;0.64;84.43;100257.17;1740208;82;21147;-73
2020/12/04 06:39:04;;;;;;;37.30;15.15;;;;;;;0.81;84.12;100251.13;1722900;83;22002;-72
2020/12/04 06:41:45;;;;;;;39.30;14.65;;;;;;;0.84;84.05;100261.08;1730115;82;21296;-72
2020/12/04 06:44:20;;;;;;;33.70;15.05;;;;;;;0.75;84.23;100251.72;1724403;82;21932;-72
2020/12/04 06:46:58;;;;;;;34.80;16.30;;;;;;;0.76;83.95;100237.81;1734208;82;21187;-72
2020/12/04 06:52:16;;;;;;;36.88;15.90;;;;;;;0.78;84.09;100260.33;1723826;82;21170;-72
2020/12/04 06:54:46;;;;;;;38.10;17.07;;;;;;;0.93;83.78;100269.98;1714531;82;21174;-73
2020/12/04 06:57:20;;;;;;;34.65;15.45;;;;;;;0.88;83.71;100267.92;1724040;82;22169;-72
2020/12/04 06:59:47;;;;;;;33.92;15.68;;;;;;;0.89;84.19;100272.25;1746407;82;22153;-73
2020/12/04 07:02:20;;;;;;;35.92;13.83;;;;;;;1.06;83.56;100279.25;1750123;82;21146;-72
2020/12/04 07:04:53;;;;;;;31.80;14.47;;;;;;;0.92;83.56;100279.98;1718779;81;21174;-73
2020/12/04 07:07:25;;;;;;;40.98;16.67;;;;;;;0.87;83.75;100271.41;1707682;84;21559;-73
2020/12/04 07:10:01;;;;;;;32.83;14.23;;;;;;;0.97;83.50;100275.53;1725400;82;21180;-72
2020/12/04 07:12:31;;;;;;;34.15;13.62;;;;;;;1.01;83.44;100277.63;1737575;82;21658;-73
2020/12/04 07:14:59;;;;;;;31.77;13.30;;;;;;;0.92;83.64;100273.47;1720304;82;21154;-73
2020/12/04 07:17:28;;;;;;;32.65;15.05;;;;;;;0.94;83.59;100269.09;1709530;83;21277;-72
2020/12/04 07:19:58;;;;;;;32.70;14.58;;;;;;;1.01;83.37;100272.41;1714472;82;21623;-73
2020/12/04 07:22:26;;;;;;;34.50;14.98;;;;;;;0.95;83.51;100279.94;1722937;82;21346;-73
2020/12/04 07:24:55;;;;;;;32.93;14.70;;;;;;;0.91;83.76;100283.47;1746222;82;21285;-72
2020/12/04 07:27:29;;;;;;;34.03;14.58;;;;;;;1.02;83.48;100278.88;1729723;82;21146;-72
2020/12/04 07:29:56;;;;;;;34.83;14.85;;;;;;;1.02;83.43;100284.55;1722718;82;21159;-73
2020/12/04 07:32:25;;;;;;;34.67;14.35;;;;;;;0.93;83.67;100281.70;1732325;82;21515;-73
2020/12/04 07:34:53;;;;;;;32.67;14.15;;;;;;;1.05;83.44;100289.25;1750044;82;21325;-73
2020/12/04 07:37:24;;;;;;;30.30;12.88;;;;;;;1.07;83.32;100286.61;1740223;81;21185;-72
2020/12/04 07:39:51;;;;;;;30.57;14.03;;;;;;;0.96;83.58;100294.67;1699551;83;21173;-73
2020/12/04 07:42:18;;;;;;;37.80;14.55;;;;;;;1.02;83.46;100291.91;1725509;82;21571;-72
2020/12/04 07:44:52;;;;;;;40.80;17.02;;;;;;;1.08;83.28;100293.08;1711008;82;21320;-72
2020/12/04 07:47:19;;;;;;;31.82;13.48;;;;;;;0.97;83.55;100305.05;1707823;82;21327;-71
2020/12/04 07:49:52;;;;;;;32.10;14.30;;;;;;;1.13;83.60;100305.55;1720689;82;21326;-73
2020/12/04 07:52:23;;;;;;;34.98;14.75;;;;;;;1.28;83.37;100289.19;1680624;83;21182;-72
2020/12/04 07:55:09;;;;;;;44.73;19.07;;;;;;;1.23;82.93;100288.40;1730327;82;21079;-72
2020/12/04 07:57:44;;;;;;;43.60;17.55;;;;;;;1.20;82.90;100297.61;1732808;82;21147;-71
2020/12/04 08:00:13;;;;;;;34.58;13.85;;;;;;;1.24;82.72;100296.20;1726959;82;21552;-71
2020/12/04 08:02:41;;;;;;;35.23;14.47;;;;;;;1.11;83.02;100298.23;1733576;82;21104;-71
2020/12/04 08:05:09;;;;;;;31.97;12.93;;;;;;;1.11;83.23;100294.33;1724551;82;21313;-70
2020/12/04 08:07:38;;;;;;;39.88;17.23;;;;;;;1.23;82.94;100273.64;1698576;82;21191;-71
2020/12/04 08:10:05;;;;;;;33.75;14.53;;;;;;;1.23;82.89;100295.79;1721003;82;21841;-71
2020/12/04 08:12:33;;;;;;;35.35;15.75;;;;;;;1.14;83.06;100290.80;1728235;82;21190;-72
2020/12/04 08:15:03;;;;;;;35.43;16.12;;;;;;;1.26;82.89;100298.31;1718813;82;21208;-71
2020/12/04 08:17:31;;;;;;;34.08;14.25;;;;;;;1.40;82.56;100294.54;1719405;82;21210;-70
2020/12/04 08:19:59;;;;;;;33.80;15.08;;;;;;;1.29;82.61;100308.69;1742473;82;21143;-71
2020/12/04 08:22:32;;;;;;;39.80;16.73;;;;;;;1.27;82.77;100304.40;1738408;82;21265;-71
2020/12/04 08:27:35;;;;;;;38.67;17.15;;;;;;;1.40;82.58;100315.39;1749231;82;21175;-72
2020/12/04 08:30:16;;;;;;;37.20;15.13;;;;;;;1.34;82.64;100317.67;1745881;82;21308;-70
2020/12/04 08:32:56;;;;;;;40.60;19.15;;;;;;;1.42;82.56;100317.06;1743681;81;21211;-72
2020/12/04 08:35:27;;;;;;;37.08;15.93;;;;;;;1.46;82.39;100303.06;1723176;82;21281;-71
2020/12/04 08:38:06;;;;;;;35.73;15.70;;;;;;;1.42;82.62;100313.16;1719507;82;21120;-72
2020/12/04 08:40:33;;;;;;;36.42;16.25;;;;;;;1.49;82.47;100299.98;1720132;82;21312;-71
2020/12/04 08:43:19;;;;;;;43.65;20.17;;;;;;;1.62;82.08;100300.95;1711734;82;21179;-71
2020/12/04 08:45:49;;;;;;;39.08;17.05;;;;;;;1.57;82.30;100300.64;1729504;82;21159;-71
2020/12/04 08:48:22;;;;;;;37.63;17.57;;;;;;;1.62;82.14;100302.69;1747491;82;21341;-72
2020/12/04 08:50:51;;;;;;;35.50;14.70;;;;;;;1.67;81.83;100303.89;1732220;82;21182;-71
2020/12/04 08:53:21;;;;;;;39.05;16.60;;;;;;;1.53;82.16;100296.41;1737082;82;21170;-71
2020/12/04 08:55:52;;;;;;;44.03;19.17;;;;;;;1.53;82.28;100297.25;1721275;82;21378;-72
2020/12/04 08:58:21;;;;;;;36.17;15.60;;;;;;;1.56;82.12;100305.44;1731243;82;21123;-72
2020/12/04 09:00:51;;;;;;;40.92;17.40;;;;;;;1.49;82.29;100298.69;1729353;82;21284;-71
2020/12/04 09:05:29;;;;;;;36.38;14.10;;;;;;;1.63;82.19;100294.82;1777830;79;22824;-72
2020/12/04 09:07:58;;;;;;;37.90;16.35;;;;;;;1.49;82.48;100289.09;1729338;81;21161;-72
2020/12/04 09:10:25;;;;;;;34.03;15.08;;;;;;;1.55;82.51;100294.59;1747421;81;21162;-72
2020/12/04 09:12:56;;;;;;;34.83;14.85;;;;;;;1.61;82.33;100293.15;1728082;82;21258;-73
2020/12/04 09:15:22;;;;;;;28.67;12.88;;;;;;;1.52;82.55;100297.30;1722440;82;21224;-72
2020/12/04 09:17:49;;;;;;;37.60;17.82;;;;;;;1.54;82.56;100292.45;1692728;84;21147;-71
2020/12/04 09:20:16;;;;;;;40.15;16.32;;;;;;;1.57;82.42;100294.13;1722075;82;21146;-72
2020/12/04 09:22:44;;;;;;;30.70;14.65;;;;;;;1.51;82.72;100296.45;1693064;84;21146;-72
2020/12/04 09:25:14;;;;;;;30.95;14.75;;;;;;;1.58;82.46;100291.94;1697360;84;21194;-72
2020/12/04 09:27:42;;;;;;;36.20;16.40;;;;;;;1.69;82.24;100287.74;1700466;84;21191;-71
2020/12/04 09:30:13;;;;;;;31.25;12.58;;;;;;;1.65;82.36;100297.42;1690987;84;21830;-72
2020/12/04 09:32:44;;;;;;;34.43;14.68;;;;;;;1.71;82.27;100297.23;1690427;84;21155;-73
2020/12/04 09:35:12;;;;;;;35.25;15.23;;;;;;;1.80;81.92;100295.73;1721877;83;21591;-72
2020/12/04 09:37:39;;;;;;;33.15;13.48;;;;;;;1.77;81.88;100294.48;1718600;82;21324;-73
2020/12/04 09:40:13;;;;;;;27.80;13.62;;;;;;;1.66;81.96;100287.38;1725127;83;21095;-73
2020/12/04 09:42:41;;;;;;;26.85;12.50;;;;;;;1.70;81.93;100294.25;1718544;82;21187;-73
2020/12/04 09:45:10;;;;;;;32.53;15.40;;;;;;;1.75;81.80;100279.34;1721838;83;21210;-73
2020/12/04 09:47:37;;;;;;;27.52;13.35;;;;;;;1.63;82.03;100277.03;1719801;82;21174;-72
2020/12/04 09:50:11;;;;;;;32.65;13.55;;;;;;;1.66;82.18;100274.33;1719791;83;21187;-72
2020/12/04 09:52:39;;;;;;;31.93;13.72;;;;;;;1.67;81.97;100269.53;1687378;84;21207;-73
2020/12/04 09:55:08;;;;;;;26.70;11.85;;;;;;;1.47;82.38;100270.90;1690035;83;21305;-73
2020/12/04 09:57:36;;;;;;;30.32;14.00;;;;;;;1.42;82.70;100272.77;1711006;83;21599;-74
2020/12/04 10:00:04;;;;;;;32.58;14.98;;;;;;;1.56;82.56;100284.59;1698408;83;21329;-74
2020/12/04 10:02:35;;;;;;;27.02;11.53;;;;;;;1.55;82.58;100290.69;1728893;83;21635;-74
2020/12/04 10:05:03;;;;;;;28.27;14.03;;;;;;;1.52;82.57;100285.56;1713338;83;21202;-74
2020/12/04 10:07:32;;;;;;;26.20;12.15;;;;;;;1.59;82.41;100297.56;1706211;83;21328;-73
2020/12/04 10:09:59;;;;;;;30.25;13.22;;;;;;;1.67;82.24;100294.30;1716149;83;21613;-73
2020/12/04 10:12:27;;;;;;;30.32;14.13;;;;;;;1.50;82.32;100291.25;1717096;83;21202;-74
2020/12/04 10:14:54;;;;;;;29.02;14.78;;;;;;;1.51;82.46;100289.06;1703633;84;21168;-74
2020/12/04 10:17:21;;;;;;;27.00;12.78;;;;;;;1.51;82.21;100299.48;1688206;85;21187;-74
2020/12/04 10:19:49;;;;;;;25.02;11.65;;;;;;;1.42;82.49;100296.64;1690506;85;21758;-73
2020/12/04 10:22:16;;;;;;;24.98;11.95;;;;;;;1.41;82.57;100299.71;1699196;84;21631;-73
2020/12/04 10:24:43;;;;;;;29.10;13.55;;;;;;;1.55;82.33;100299.81;1725431;83;21225;-73
2020/12/04 10:27:10;;;;;;;27.77;13.93;;;;;;;1.47;82.37;100298.69;1716204;83;21321;-72
2020/12/04 10:29:38;;;;;;;32.33;14.47;;;;;;;1.49;82.45;100293.01;1694928;84;21142;-73
2020/12/04 10:32:05;;;;;;;33.85;15.50;;;;;;;1.58;82.11;100283.66;1724564;83;21730;-74
2020/12/04 10:34:33;;;;;;;30.15;15.75;;;;;;;1.54;82.38;100287.70;1716449;83;21192;-74
2020/12/04 10:37:00;;;;;;;36.13;15.40;;;;;;;1.58;82.43;100277.59;1697805;83;21139;-74
2020/12/04 10:39:27;;;;;;;32.23;14.73;;;;;;;1.73;82.01;100277.20;1704295;83;21327;-74
2020/12/04 10:41:55;;;;;;;34.92;14.33;;;;;;;1.66;82.18;100280.02;1690366;84;21168;-74
2020/12/04 10:44:22;;;;;;;35.45;16.32;;;;;;;1.63;82.36;100279.18;1691052;83;21331;-74
2020/12/04 10:46:50;;;;;;;35.20;17.48;;;;;;;1.72;82.14;100266.36;1711020;83;21587;-73
2020/12/04 10:49:17;;;;;;;34.70;15.72;;;;;;;1.64;82.26;100274.37;1698074;83;21142;-74
2020/12/04 10:51:56;;;;;;;35.28;15.72;;;;;;;1.52;82.70;100269.92;1683488;84;21190;-74
2020/12/04 10:54:23;;;;;;;35.38;15.78;;;;;;;1.62;82.59;100270.98;1720289;83;21722;-73
2020/12/04 10:56:54;;;;;;;36.70;16.55;;;;;;;1.70;82.54;100277.30;1725132;82;21305;-73
2020/12/04 10:59:23;;;;;;;38.10;15.88;;;;;;;1.64;82.69;100270.93;1698920;84;21176;-73
2020/12/04 11:07:17;;;;;;;51.70;21.35;;;;;;;1.73;82.54;100268.08;1779593;80;21119;-73
2020/12/04 11:09:46;;;;;;;43.65;18.23;;;;;;;1.67;82.75;100274.75;1779920;79;21631;-75
2020/12/04 11:12:14;;;;;;;39.88;16.25;;;;;;;1.77;82.46;100264.49;1767680;79;21277;-73
2020/12/04 11:14:43;;;;;;;47.38;16.90;;;;;;;1.77;82.26;100272.31;1761291;81;21324;-75
2020/12/04 11:17:10;;;;;;;52.45;20.30;;;;;;;1.64;82.45;100276.98;1777122;79;21170;-74
2020/12/04 11:19:38;;;;;;;61.20;23.25;;;;;;;1.61;82.64;100263.17;1763247;80;21302;-72
2020/12/04 11:22:05;;;;;;;68.57;27.80;;;;;;;1.70;82.50;100272.52;1768972;79;22345;-72
2020/12/04 11:24:33;;;;;;;56.85;21.68;;;;;;;1.66;82.72;100263.06;1781736;79;21134;-73
2020/12/04 11:27:01;;;;;;;51.53;20.68;;;;;;;1.58;83.04;100260.19;1773305;80;21155;-75
2020/12/04 11:29:28;;;;;;;61.15;23.05;;;;;;;1.70;82.89;100261.66;1718448;82;21293;-74
2020/12/04 11:31:55;;;;;;;70.57;26.93;;;;;;;1.80;82.74;100257.91;1729080;81;21155;-73
2020/12/04 11:34:22;;;;;;;67.40;24.87;;;;;;;1.76;82.87;100263.23;1734934;81;21320;-73
2020/12/04 11:36:50;;;;;;;65.20;24.10;;;;;;;1.80;82.74;100260.52;1746226;81;21171;-73
2020/12/04 11:39:17;;;;;;;56.85;21.50;;;;;;;1.86;82.52;100262.56;1738030;81;21137;-73